Bo Pueblito Nuevo, Puerto Rico
Current Conditions -  °F | °C
As of 10:15 PM on Tuesday 21 Oct 2014 (Local Time) from TJBQ Reporting Station
Broken Clouds Broken Clouds  
Wind Chill: 75°   Ceiling: 8000
Heat Index: 75°   Visibility: 10mi
Dew Point: 73°   Wind: 0mph
Humidity: 94%   Direction: NA
Pressure: 29.99"   Gusts: NA
Location:  18.0152°N, 66.6246°W
Report Text: TJBQ 220215Z AUTO 00000KT 10SM BKN080 24/23 A2999 TS RMK LTG VC AND DSNT N RWY08 ATIS H
Loading
Personal Weather Stations






























Interactive Weather Map
Tropical Storm Tracking
New forecast layout! Learn more

10-Day Weather Forecast

Advertisements
Track Severe Weather on mobile